Ana Sayfa
METAR-TAF:

METAR-TAF

Havaalanları :

Makao Uluslararası Havalimanı

Makao, Çin

Enlem: 22-10N, Boylam: 113-34E, yükseklik: 114 m

Güncel hava durumu gözlemi

Rapor saat 10:30 UTC de 15 dakika önce yapıldı.
Rüzgar güney/güneybatıdan 9 kt
Sıcaklık 26°C
Nem 84%
Basınç 1011 hPa
Görüş mesafesi 10 km veya daha fazla
1500 m altında bulut yok ve kümülonimbus yok

METAR: VMMC 121030Z 20009KT CAVOK 26/23 Q1011 NOSIG

Saat: 18:45 (10:45 UTC)

Tahmin

Rapor saat 05:00 UTC de 5 saat ve 45 dakika önce yapıldı.
Ayın 12'si saat 06 UTC'den ayın 13'si saat 12 UTC'ye kadar geçerli Tahmin
Rüzgar güneydan 8 kt
Görüş mesafesi 10 km veya daha fazla
2500 ft yükseklikte az bulutlu

TAF: VMMC 120500Z 1206/1312 18008KT 9999 FEW025

4.000'den fazla havaalanı için hava durumu gözlemleri ve tahminleri (METAR ve TAF raporları).

Kullanılabilir istasyonlar harita üzerinde sarı ve kırmızı noktalarla gösterilir.

İstasyonun adını görmek için fareyi noktanın üzerinde gezdirin.

Sonrasında hava gözlem ve tahminlerini görmek için tıklayın.

Haritayı değiştirmek için: yaklaştırmak için siyah artı işaretli yeşil düğmeye ve uzaklaştırmak için de eksi işaretli düğmeye hızla tıklayın; bitişik haritalar için yeşil okları kullanın.


METAR-TAF: